Francisco Bangoy International Airport
RPMD : now visible

Airfield :











YOU CAN JOIN US ON...

 
LOGIN :

Register | Disclaimer

   EN    FR    IT 

 









Legend :    VFR   Marginal VFR   IFR   Intensive IFR   Very Intensive IFR
Visi :
Ceiling :
>= 8 km
>= 3000ft
5 to 8 km
1000 to 3000 ft
1500m to 5 km
500 to 1000 ft
800 to 1500m
200 to 500 ft
< 800m
< 200 ft
Symbols :   Thunderstorms  Fog  Heavy snow  Heavy precipitations  Wind > 20 kt






- Airport Elevation : 96 ft
- IATA code : DVO


RPMD - Francisco Bangoy International

CURRENT METAR :
  • 151000Z 19006KT 9999 FEW015CB BKN090 BKN290 28/24 Q1009 RMK A2980 CB NW-NNW

EXPIRED METARs :
  • 150900Z 19009KT 160V220 9999 FEW015CB SCT090 BKN290 29/24 Q1008 RMK A2977 CB NW
  • 150800Z 16005KT 130V210 9999 FEW015CB BKN090 BKN290 31/24 Q1007 RMK A2974 CB S

TAF TAF RPMD
Valid from the 15 at 06:00 until the 16 at 06:00 UTC


150500Z 1506/1606 16006KT 9999 FEW016 SCT090 BKN260
TEMPO 1506/1512 18008KT 7000 -TSRA FEW015CB SCT016 BKN080
TEMPO 1515/1521 32004KT
RPHI FIR / Asia



MET'MAP, your aeronautical weather chart ! - Copyright ORBIFLY December 2007 - Disclaimer

ORBIFLY MET'MAP TEAM :

Programming & Development : Alexandra Zaïnal
Original concept : Baudouin d'Aumeries
Technical & hardware support : Manuel Goepfert
Assistance : Marc-Olivier Méhu




SOURCES & CREDITS :

   NOAA       Earth
Advisory